createdAt,value
2023-11-22T00:08:17.977Z,99972.50
2023-11-22T00:18:19.693Z,99993.72
2023-11-22T00:28:21.300Z,100005.66
2023-11-22T00:38:23.098Z,100005.41
2023-11-22T00:48:24.717Z,99998.63
2023-11-22T00:58:26.737Z,100007.53
2023-11-22T01:08:28.518Z,100008.56
2023-11-22T01:18:30.226Z,100022.97
2023-11-22T01:28:35.481Z,100014.63
2023-11-22T01:38:40.826Z,100031.63
2023-11-22T01:48:42.515Z,100038.44
2023-11-22T01:58:45.293Z,100045.25
2023-11-22T02:08:47.057Z,100053.88
2023-11-22T02:18:49.388Z,100062.13
2023-11-22T02:28:51.120Z,100064.22
2023-11-22T02:38:52.928Z,100072.78
2023-11-22T02:48:57.181Z,100078.31
2023-11-22T02:58:59.194Z,100101.25
2023-11-22T03:09:00.843Z,100109.28
2023-11-22T03:19:12.029Z,100116.00
2023-11-22T03:29:17.612Z,100126.22
2023-11-22T03:39:19.292Z,100134.97
2023-11-22T03:49:20.972Z,100128.94
2023-11-22T03:59:25.271Z,100143.53
2023-11-22T04:09:27.036Z,100145.25
2023-11-22T04:19:29.742Z,100162.41
2023-11-22T04:29:31.951Z,100163.09
2023-11-22T04:39:33.625Z,100163.22
2023-11-22T04:49:35.295Z,100186.13
2023-11-22T04:59:37.028Z,100190.47
2023-11-22T05:09:38.726Z,100195.59
2023-11-22T05:19:41.989Z,100213.47
2023-11-22T05:29:50.545Z,100226.09
2023-11-22T05:39:59.012Z,100236.94
2023-11-22T05:50:00.714Z,100250.31
2023-11-22T06:00:02.410Z,100253.50
2023-11-22T06:10:06.916Z,100270.16
2023-11-22T06:20:10.776Z,100300.69
2023-11-22T06:30:19.734Z,100314.59
2023-11-22T06:40:24.772Z,100328.31
2023-11-22T06:50:26.514Z,100337.25
2023-11-22T07:00:29.818Z,100346.66
2023-11-22T07:10:38.149Z,100368.59
2023-11-22T07:20:41.321Z,100382.59
2023-11-22T07:30:43.375Z,100392.50
2023-11-22T07:40:45.163Z,100378.66
2023-11-22T07:50:50.313Z,100383.13
2023-11-22T08:00:53.024Z,100401.53
2023-11-22T08:10:55.417Z,100421.75
2023-11-22T08:21:00.100Z,100432.00
2023-11-22T08:31:03.226Z,100447.91
2023-11-22T08:41:07.370Z,100454.41
2023-11-22T08:51:09.298Z,100453.44
2023-11-22T09:01:18.914Z,100436.75
2023-11-22T09:11:23.543Z,100446.66
2023-11-22T09:21:29.779Z,100447.53
2023-11-22T09:31:33.385Z,100454.72
2023-11-22T09:41:36.801Z,100462.69
2023-11-22T09:51:43.042Z,100483.03
2023-11-22T10:01:44.797Z,100480.66
2023-11-22T10:11:47.540Z,100487.78
2023-11-22T10:22:07.597Z,100489.13
2023-11-22T10:32:11.849Z,100501.63
2023-11-22T10:42:14.124Z,100524.81
2023-11-22T10:52:20.646Z,100539.28
2023-11-22T11:02:24.807Z,100545.41
2023-11-22T11:12:28.746Z,100569.28
2023-11-22T11:22:33.063Z,100558.72
2023-11-22T11:32:36.616Z,100578.22
2023-11-22T11:42:45.239Z,100585.53
2023-11-22T11:52:46.995Z,100595.75
2023-11-22T12:02:49.956Z,100603.22
2023-11-22T12:12:51.808Z,100610.13
2023-11-22T12:22:57.320Z,100616.03
2023-11-22T12:33:11.139Z,100630.56
2023-11-22T12:43:15.405Z,100649.06
2023-11-22T12:53:18.265Z,100670.31
2023-11-22T13:03:20.106Z,100679.97
2023-11-22T13:13:33.955Z,100695.47
2023-11-22T13:23:37.244Z,100683.78
2023-11-22T13:33:40.326Z,100674.44
2023-11-22T13:43:42.084Z,100679.44
2023-11-22T13:53:55.412Z,100701.47
2023-11-22T14:03:58.314Z,100727.38
2023-11-22T14:14:07.811Z,100718.75
2023-11-22T14:24:36.698Z,100718.25
2023-11-22T14:35:05.600Z,100736.09
2023-11-22T14:54:55.699Z,100753.66
2023-11-22T15:18:13.055Z,100807.59
2023-11-22T15:28:33.145Z,100787.50
2023-11-22T15:38:50.389Z,100810.47
2023-11-22T15:59:52.177Z,100880.78
2023-11-22T16:10:19.998Z,100870.34
2023-11-22T16:31:32.468Z,100916.41
2023-11-22T16:51:53.071Z,100941.00
2023-11-22T17:01:54.912Z,100950.69
2023-11-22T17:11:56.658Z,100945.66
2023-11-22T17:21:58.556Z,100957.53
2023-11-22T17:32:06.872Z,100970.53
2023-11-22T17:42:08.859Z,100999.28
2023-11-22T17:52:11.329Z,101029.31
2023-11-22T18:02:14.792Z,101046.41
2023-11-22T18:12:16.933Z,101037.13
2023-11-22T18:22:20.151Z,101047.63
2023-11-22T18:32:26.846Z,101077.56
2023-11-22T18:42:30.849Z,101081.66
2023-11-22T18:52:34.100Z,101085.81
2023-11-22T19:02:36.711Z,101077.31
2023-11-22T19:12:42.698Z,101080.22
2023-11-22T19:22:45.077Z,101091.38
2023-11-22T19:32:47.939Z,101092.59
2023-11-22T19:42:50.462Z,101111.25
2023-11-22T19:52:53.717Z,101150.84
2023-11-22T20:02:59.629Z,101166.19
2023-11-22T20:13:03.425Z,101201.44
2023-11-22T20:23:07.279Z,101200.22
2023-11-22T20:33:11.940Z,101165.31
2023-11-22T20:43:14.180Z,101163.56
2023-11-22T20:53:18.463Z,101173.09
2023-11-22T21:03:20.378Z,101176.16
2023-11-22T21:13:22.943Z,101174.94
2023-11-22T21:23:25.775Z,101181.38
2023-11-22T21:33:28.701Z,101200.66
2023-11-22T21:43:30.488Z,101192.09
2023-11-22T21:53:32.230Z,101187.44
2023-11-22T22:03:34.177Z,101207.38
2023-11-22T22:13:36.141Z,101208.50
2023-11-22T22:23:38.894Z,101213.66
2023-11-22T22:33:40.886Z,101218.94
2023-11-22T22:43:42.560Z,101219.56
2023-11-22T22:53:44.817Z,101210.06
2023-11-22T23:03:46.621Z,101176.88
2023-11-22T23:13:48.980Z,101171.69
2023-11-22T23:23:50.793Z,101154.16
2023-11-22T23:33:56.250Z,101168.94
2023-11-22T23:43:58.241Z,101174.47
2023-11-22T23:54:00.470Z,101168.56
